sensor_id;sensor_type;location;lat;lon;timestamp;pressure;altitude;pressure_sealevel;temperature;humidity
56630;BME280;42502;40.732;-74.254;2022-11-21T00:00:17;101553.94;;;17.53;32.84
56630;BME280;42502;40.732;-74.254;2022-11-21T00:02:19;101548.16;;;17.49;32.94
56630;BME280;42502;40.732;-74.254;2022-11-21T00:04:22;101560.78;;;17.47;33.01
56630;BME280;42502;40.732;-74.254;2022-11-21T00:06:23;101559.41;;;17.44;32.94
56630;BME280;42502;40.732;-74.254;2022-11-21T00:08:27;101574.22;;;17.45;32.82
56630;BME280;42502;40.732;-74.254;2022-11-21T00:10:30;101557.56;;;17.39;32.86
56630;BME280;42502;40.732;-74.254;2022-11-21T00:12:31;101566.25;;;17.38;32.99
56630;BME280;42502;40.732;-74.254;2022-11-21T00:14:32;101575.47;;;17.38;33.01
56630;BME280;42502;40.732;-74.254;2022-11-21T00:16:33;101589.13;;;17.40;32.94
56630;BME280;42502;40.732;-74.254;2022-11-21T00:18:34;101579.09;;;17.39;32.91
56630;BME280;42502;40.732;-74.254;2022-11-21T00:20:35;101583.00;;;17.38;33.08
56630;BME280;42502;40.732;-74.254;2022-11-21T00:22:36;101585.91;;;17.33;32.95
56630;BME280;42502;40.732;-74.254;2022-11-21T00:24:37;101580.94;;;17.30;32.96
56630;BME280;42502;40.732;-74.254;2022-11-21T00:26:38;101592.81;;;17.35;32.93
56630;BME280;42502;40.732;-74.254;2022-11-21T00:28:39;101595.94;;;17.34;32.90
56630;BME280;42502;40.732;-74.254;2022-11-21T00:30:40;101594.91;;;17.30;33.00
56630;BME280;42502;40.732;-74.254;2022-11-21T00:32:44;101604.63;;;17.32;33.10
56630;BME280;42502;40.732;-74.254;2022-11-21T00:34:45;101596.16;;;17.23;33.00
56630;BME280;42502;40.732;-74.254;2022-11-21T00:36:46;101599.66;;;17.29;33.13
56630;BME280;42502;40.732;-74.254;2022-11-21T00:38:47;101606.41;;;17.28;33.07
56630;BME280;42502;40.732;-74.254;2022-11-21T00:40:48;101598.72;;;17.20;33.11
56630;BME280;42502;40.732;-74.254;2022-11-21T00:42:48;101609.81;;;17.25;33.03
56630;BME280;42502;40.732;-74.254;2022-11-21T00:44:49;101614.34;;;17.21;33.05
56630;BME280;42502;40.732;-74.254;2022-11-21T00:46:50;101625.22;;;17.22;32.89
56630;BME280;42502;40.732;-74.254;2022-11-21T00:48:51;101620.25;;;17.19;32.97
56630;BME280;42502;40.732;-74.254;2022-11-21T00:50:52;101631.09;;;17.21;33.09
56630;BME280;42502;40.732;-74.254;2022-11-21T00:52:56;101618.69;;;17.13;33.20
56630;BME280;42502;40.732;-74.254;2022-11-21T00:54:57;101621.97;;;17.15;32.90
56630;BME280;42502;40.732;-74.254;2022-11-21T00:56:58;101617.56;;;17.14;33.07
56630;BME280;42502;40.732;-74.254;2022-11-21T00:58:59;101621.97;;;17.15;32.91
56630;BME280;42502;40.732;-74.254;2022-11-21T01:01:12;101613.22;;;17.08;33.07
56630;BME280;42502;40.732;-74.254;2022-11-21T01:03:14;101620.66;;;17.13;33.10
56630;BME280;42502;40.732;-74.254;2022-11-21T01:05:15;101622.59;;;17.12;32.88
56630;BME280;42502;40.732;-74.254;2022-11-21T01:07:15;101624.38;;;17.08;33.00
56630;BME280;42502;40.732;-74.254;2022-11-21T01:09:16;101623.00;;;17.05;33.13
56630;BME280;42502;40.732;-74.254;2022-11-21T01:11:18;101630.78;;;17.09;33.00
56630;BME280;42502;40.732;-74.254;2022-11-21T01:13:19;101617.13;;;17.07;33.30
56630;BME280;42502;40.732;-74.254;2022-11-21T01:15:23;101632.22;;;17.06;32.82
56630;BME280;42502;40.732;-74.254;2022-11-21T01:17:24;101633.38;;;17.05;32.87
56630;BME280;42502;40.732;-74.254;2022-11-21T01:19:25;101629.53;;;17.01;32.84
56630;BME280;42502;40.732;-74.254;2022-11-21T01:21:28;101630.34;;;17.01;32.90
56630;BME280;42502;40.732;-74.254;2022-11-21T01:23:30;101622.78;;;17.02;32.66
56630;BME280;42502;40.732;-74.254;2022-11-21T01:25:36;101607.19;;;16.82;33.21
56630;BME280;42502;40.732;-74.254;2022-11-21T01:27:36;101630.75;;;16.95;32.96
56630;BME280;42502;40.732;-74.254;2022-11-21T01:29:37;101648.81;;;16.97;33.12
56630;BME280;42502;40.732;-74.254;2022-11-21T01:31:41;101652.78;;;16.96;32.84
56630;BME280;42502;40.732;-74.254;2022-11-21T01:33:45;101652.03;;;16.91;32.94
56630;BME280;42502;40.732;-74.254;2022-11-21T01:35:45;101660.59;;;16.94;33.00
56630;BME280;42502;40.732;-74.254;2022-11-21T01:37:49;101651.72;;;16.92;32.80
56630;BME280;42502;40.732;-74.254;2022-11-21T01:39:50;101654.50;;;16.92;33.07
56630;BME280;42502;40.732;-74.254;2022-11-21T01:41:51;101657.59;;;16.91;32.86
56630;BME280;42502;40.732;-74.254;2022-11-21T01:43:52;101657.41;;;16.87;33.08
56630;BME280;42502;40.732;-74.254;2022-11-21T01:45:59;101657.09;;;16.89;33.08
56630;BME280;42502;40.732;-74.254;2022-11-21T01:48:00;101653.22;;;16.84;33.14
56630;BME280;42502;40.732;-74.254;2022-11-21T01:50:01;101641.84;;;16.81;33.01
56630;BME280;42502;40.732;-74.254;2022-11-21T01:52:07;101637.91;;;16.82;33.07
56630;BME280;42502;40.732;-74.254;2022-11-21T01:56:30;101653.81;;;16.81;33.09
56630;BME280;42502;40.732;-74.254;2022-11-21T01:58:33;101657.72;;;16.80;33.03
56630;BME280;42502;40.732;-74.254;2022-11-21T02:00:38;101649.97;;;16.77;33.04
56630;BME280;42502;40.732;-74.254;2022-11-21T02:02:45;101660.84;;;16.79;32.95
56630;BME280;42502;40.732;-74.254;2022-11-21T02:04:51;101671.19;;;16.78;33.17
56630;BME280;42502;40.732;-74.254;2022-11-21T02:06:52;101657.00;;;16.75;33.04
56630;BME280;42502;40.732;-74.254;2022-11-21T02:08:54;101663.09;;;16.77;33.15
56630;BME280;42502;40.732;-74.254;2022-11-21T02:11:36;101677.66;;;16.74;33.29
56630;BME280;42502;40.732;-74.254;2022-11-21T02:13:40;101688.53;;;16.75;33.26
56630;BME280;42502;40.732;-74.254;2022-11-21T02:15:40;101683.25;;;16.74;33.13
56630;BME280;42502;40.732;-74.254;2022-11-21T02:17:41;101677.22;;;16.66;33.44
56630;BME280;42502;40.732;-74.254;2022-11-21T02:22:06;101696.97;;;16.70;33.11
56630;BME280;42502;40.732;-74.254;2022-11-21T02:24:44;101705.63;;;16.68;33.07
56630;BME280;42502;40.732;-74.254;2022-11-21T02:26:50;101710.09;;;16.69;33.04
56630;BME280;42502;40.732;-74.254;2022-11-21T02:28:51;101714.84;;;16.69;33.19
56630;BME280;42502;40.732;-74.254;2022-11-21T02:30:52;101706.25;;;16.65;33.17
56630;BME280;42502;40.732;-74.254;2022-11-21T02:32:55;101706.84;;;16.62;33.29
56630;BME280;42502;40.732;-74.254;2022-11-21T02:34:57;101706.25;;;16.65;33.26
56630;BME280;42502;40.732;-74.254;2022-11-21T02:36:58;101712.13;;;16.64;33.50
56630;BME280;42502;40.732;-74.254;2022-11-21T02:39:00;101704.16;;;16.57;33.46
56630;BME280;42502;40.732;-74.254;2022-11-21T02:41:33;101716.66;;;16.60;33.44
56630;BME280;42502;40.732;-74.254;2022-11-21T02:45:42;101711.09;;;16.60;33.26
56630;BME280;42502;40.732;-74.254;2022-11-21T02:47:44;101717.78;;;16.59;33.35
56630;BME280;42502;40.732;-74.254;2022-11-21T02:49:55;101717.56;;;16.55;33.37
56630;BME280;42502;40.732;-74.254;2022-11-21T02:51:57;101721.47;;;16.54;33.19
56630;BME280;42502;40.732;-74.254;2022-11-21T02:53:58;101720.66;;;16.54;33.36
56630;BME280;42502;40.732;-74.254;2022-11-21T02:55:59;101727.06;;;16.54;33.37
56630;BME280;42502;40.732;-74.254;2022-11-21T02:58:03;101728.50;;;16.51;33.50
56630;BME280;42502;40.732;-74.254;2022-11-21T03:00:06;101726.59;;;16.47;33.29
56630;BME280;42502;40.732;-74.254;2022-11-21T03:02:09;101740.50;;;16.52;33.17
56630;BME280;42502;40.732;-74.254;2022-11-21T03:04:10;101733.25;;;16.51;33.22
56630;BME280;42502;40.732;-74.254;2022-11-21T03:06:11;101737.16;;;16.50;33.34
56630;BME280;42502;40.732;-74.254;2022-11-21T03:08:15;101746.97;;;16.47;33.25
56630;BME280;42502;40.732;-74.254;2022-11-21T03:10:16;101738.59;;;16.47;33.41
56630;BME280;42502;40.732;-74.254;2022-11-21T03:12:17;101748.91;;;16.47;33.23
56630;BME280;42502;40.732;-74.254;2022-11-21T03:14:18;101747.28;;;16.46;33.24
56630;BME280;42502;40.732;-74.254;2022-11-21T03:16:22;101758.19;;;16.42;33.26
56630;BME280;42502;40.732;-74.254;2022-11-21T03:18:25;101754.28;;;16.43;33.42
56630;BME280;42502;40.732;-74.254;2022-11-21T03:20:26;101757.88;;;16.44;33.46
56630;BME280;42502;40.732;-74.254;2022-11-21T03:22:27;101763.75;;;16.42;33.37
56630;BME280;42502;40.732;-74.254;2022-11-21T03:24:28;101757.13;;;16.38;33.31
56630;BME280;42502;40.732;-74.254;2022-11-21T03:26:31;101747.16;;;16.32;33.19
56630;BME280;42502;40.732;-74.254;2022-11-21T03:28:34;101763.53;;;16.39;33.47
56630;BME280;42502;40.732;-74.254;2022-11-21T03:30:35;101761.06;;;16.37;33.24
56630;BME280;42502;40.732;-74.254;2022-11-21T03:32:36;101773.03;;;16.38;33.54
56630;BME280;42502;40.732;-74.254;2022-11-21T03:34:37;101768.88;;;16.35;33.26
56630;BME280;42502;40.732;-74.254;2022-11-21T03:36:37;101771.13;;;16.33;33.23
56630;BME280;42502;40.732;-74.254;2022-11-21T03:38:38;101776.41;;;16.34;33.49
56630;BME280;42502;40.732;-74.254;2022-11-21T03:40:40;101777.53;;;16.33;33.48
56630;BME280;42502;40.732;-74.254;2022-11-21T03:42:41;101779.50;;;16.33;33.55
56630;BME280;42502;40.732;-74.254;2022-11-21T03:44:41;101782.28;;;16.33;33.57
56630;BME280;42502;40.732;-74.254;2022-11-21T03:46:44;101795.72;;;16.31;33.28
56630;BME280;42502;40.732;-74.254;2022-11-21T03:48:46;101785.16;;;16.28;33.35
56630;BME280;42502;40.732;-74.254;2022-11-21T03:50:46;101793.22;;;16.29;33.46
56630;BME280;42502;40.732;-74.254;2022-11-21T03:52:47;101783.47;;;16.27;33.24
56630;BME280;42502;40.732;-74.254;2022-11-21T03:54:48;101786.34;;;16.22;33.28
56630;BME280;42502;40.732;-74.254;2022-11-21T03:56:49;101791.31;;;16.25;33.41
56630;BME280;42502;40.732;-74.254;2022-11-21T03:58:50;101796.59;;;16.26;33.20
56630;BME280;42502;40.732;-74.254;2022-11-21T04:00:51;101798.84;;;16.24;33.28
56630;BME280;42502;40.732;-74.254;2022-11-21T04:02:52;101800.81;;;16.24;33.62
56630;BME280;42502;40.732;-74.254;2022-11-21T04:04:53;101789.13;;;16.22;33.30
56630;BME280;42502;40.732;-74.254;2022-11-21T04:06:53;101802.78;;;16.23;33.38
56630;BME280;42502;40.732;-74.254;2022-11-21T04:08:54;101808.66;;;16.22;33.46
56630;BME280;42502;40.732;-74.254;2022-11-21T04:10:55;101801.69;;;16.19;33.40
56630;BME280;42502;40.732;-74.254;2022-11-21T04:12:56;101812.56;;;16.21;33.31
56630;BME280;42502;40.732;-74.254;2022-11-21T04:14:57;101812.84;;;16.19;33.63
56630;BME280;42502;40.732;-74.254;2022-11-21T04:16:58;101816.47;;;16.20;33.36
56630;BME280;42502;40.732;-74.254;2022-11-21T04:18:59;101814.81;;;16.19;33.39
56630;BME280;42502;40.732;-74.254;2022-11-21T04:21:04;101811.78;;;16.15;33.55
56630;BME280;42502;40.732;-74.254;2022-11-21T04:23:06;101816.22;;;16.16;33.54
56630;BME280;42502;40.732;-74.254;2022-11-21T04:25:07;101816.00;;;16.12;33.48
56630;BME280;42502;40.732;-74.254;2022-11-21T04:27:08;101823.22;;;16.13;33.33
56630;BME280;42502;40.732;-74.254;2022-11-21T04:29:09;101816.00;;;16.12;33.64
56630;BME280;42502;40.732;-74.254;2022-11-21T04:31:10;101831.59;;;16.13;33.46
56630;BME280;42502;40.732;-74.254;2022-11-21T04:33:12;101830.75;;;16.13;33.37
56630;BME280;42502;40.732;-74.254;2022-11-21T04:35:13;101821.31;;;16.09;33.67
56630;BME280;42502;40.732;-74.254;2022-11-21T04:37:13;101821.31;;;16.09;33.46
56630;BME280;42502;40.732;-74.254;2022-11-21T04:39:14;101823.81;;;16.10;33.77
56630;BME280;42502;40.732;-74.254;2022-11-21T04:41:15;101821.91;;;16.06;33.37
56630;BME280;42502;40.732;-74.254;2022-11-21T04:43:16;101827.19;;;16.07;33.45
56630;BME280;42502;40.732;-74.254;2022-11-21T04:45:17;101833.38;;;16.04;33.40
56630;BME280;42502;40.732;-74.254;2022-11-21T04:47:18;101822.81;;;16.01;33.51
56630;BME280;42502;40.732;-74.254;2022-11-21T04:49:19;101824.22;;;15.98;33.56
56630;BME280;42502;40.732;-74.254;2022-11-21T04:51:19;101830.63;;;15.99;33.72
56630;BME280;42502;40.732;-74.254;2022-11-21T04:53:20;101831.16;;;16.01;33.61
56630;BME280;42502;40.732;-74.254;2022-11-21T04:55:23;101837.34;;;15.98;33.66
56630;BME280;42502;40.732;-74.254;2022-11-21T04:57:27;101838.41;;;16.02;33.41
56630;BME280;42502;40.732;-74.254;2022-11-21T04:59:28;101826.78;;;15.95;33.87
56630;BME280;42502;40.732;-74.254;2022-11-21T05:01:29;101835.91;;;16.01;33.77
56630;BME280;42502;40.732;-74.254;2022-11-21T05:03:30;101829.56;;;15.95;33.91
56630;BME280;42502;40.732;-74.254;2022-11-21T05:05:31;101834.53;;;15.98;33.86
56630;BME280;42502;40.732;-74.254;2022-11-21T05:07:32;101845.69;;;15.98;33.90
56630;BME280;42502;40.732;-74.254;2022-11-21T05:09:33;101834.59;;;15.93;33.96
56630;BME280;42502;40.732;-74.254;2022-11-21T05:11:33;101845.97;;;15.96;33.73
56630;BME280;42502;40.732;-74.254;2022-11-21T05:13:53;101835.78;;;15.87;34.41
56630;BME280;42502;40.732;-74.254;2022-11-21T05:15:57;101849.06;;;15.95;33.77
56630;BME280;42502;40.732;-74.254;2022-11-21T05:18:07;101840.78;;;15.90;34.06
56630;BME280;42502;40.732;-74.254;2022-11-21T05:20:08;101845.75;;;15.93;33.71
56630;BME280;42502;40.732;-74.254;2022-11-21T05:22:09;101833.59;;;15.84;33.77
56630;BME280;42502;40.732;-74.254;2022-11-21T05:24:10;101854.41;;;15.91;34.18
56630;BME280;42502;40.732;-74.254;2022-11-21T05:26:11;101851.34;;;15.88;33.93
56630;BME280;42502;40.732;-74.254;2022-11-21T05:28:11;101845.56;;;15.84;33.88
56630;BME280;42502;40.732;-74.254;2022-11-21T05:30:13;101860.28;;;15.90;34.16
56630;BME280;42502;40.732;-74.254;2022-11-21T05:32:16;101858.59;;;15.89;34.14
56630;BME280;42502;40.732;-74.254;2022-11-21T05:34:17;101854.72;;;15.85;34.05
56630;BME280;42502;40.732;-74.254;2022-11-21T05:36:18;101869.75;;;15.89;33.84
56630;BME280;42502;40.732;-74.254;2022-11-21T05:38:19;101863.66;;;15.87;33.92
56630;BME280;42502;40.732;-74.254;2022-11-21T05:40:19;101861.69;;;15.87;33.86
56630;BME280;42502;40.732;-74.254;2022-11-21T05:42:20;101860.88;;;15.87;34.19
56630;BME280;42502;40.732;-74.254;2022-11-21T05:44:41;101861.97;;;15.86;34.23
56630;BME280;42502;40.732;-74.254;2022-11-21T05:46:42;101856.41;;;15.86;33.86
56630;BME280;42502;40.732;-74.254;2022-11-21T05:48:43;101855.03;;;15.83;33.88
56630;BME280;42502;40.732;-74.254;2022-11-21T05:50:47;101853.13;;;15.78;34.05
56630;BME280;42502;40.732;-74.254;2022-11-21T05:52:49;101864.25;;;15.84;33.96
56630;BME280;42502;40.732;-74.254;2022-11-21T05:54:50;101867.31;;;15.82;34.06
56630;BME280;42502;40.732;-74.254;2022-11-21T05:56:50;101866.47;;;15.81;33.89
56630;BME280;42502;40.732;-74.254;2022-11-21T05:58:54;101875.97;;;15.80;34.03
56630;BME280;42502;40.732;-74.254;2022-11-21T06:00:55;101874.31;;;15.79;33.89
56630;BME280;42502;40.732;-74.254;2022-11-21T06:02:57;101864.81;;;15.75;33.86
56630;BME280;42502;40.732;-74.254;2022-11-21T06:05:17;101880.97;;;15.78;33.88
56630;BME280;42502;40.732;-74.254;2022-11-21T06:07:17;101883.78;;;15.78;34.01
56630;BME280;42502;40.732;-74.254;2022-11-21T06:09:18;101887.66;;;15.77;34.22
56630;BME280;42502;40.732;-74.254;2022-11-21T06:11:19;101893.25;;;15.77;34.10
56630;BME280;42502;40.732;-74.254;2022-11-21T06:13:22;101887.69;;;15.72;34.12
56630;BME280;42502;40.732;-74.254;2022-11-21T06:15:23;101882.94;;;15.73;33.68
56630;BME280;42502;40.732;-74.254;2022-11-21T06:17:24;101888.22;;;15.74;33.96
56630;BME280;42502;40.732;-74.254;2022-11-21T06:19:25;101891.00;;;15.74;33.82
56630;BME280;42502;40.732;-74.254;2022-11-21T06:21:27;101892.16;;;15.73;33.80
56630;BME280;42502;40.732;-74.254;2022-11-21T06:23:29;101883.00;;;15.68;33.89
56630;BME280;42502;40.732;-74.254;2022-11-21T06:25:30;101896.63;;;15.69;34.10
56630;BME280;42502;40.732;-74.254;2022-11-21T06:27:31;101892.47;;;15.67;33.91
56630;BME280;42502;40.732;-74.254;2022-11-21T06:29:34;101903.88;;;15.70;33.77
56630;BME280;42502;40.732;-74.254;2022-11-21T06:31:35;101897.47;;;15.70;33.82
56630;BME280;42502;40.732;-74.254;2022-11-21T06:33:40;101899.41;;;15.69;33.66
56630;BME280;42502;40.732;-74.254;2022-11-21T06:35:41;101897.22;;;15.66;34.12
56630;BME280;42502;40.732;-74.254;2022-11-21T06:37:42;101900.53;;;15.68;34.06
56630;BME280;42502;40.732;-74.254;2022-11-21T06:39:42;101888.06;;;15.60;34.01
56630;BME280;42502;40.732;-74.254;2022-11-21T06:41:43;101907.25;;;15.67;33.97
56630;BME280;42502;40.732;-74.254;2022-11-21T06:43:50;101892.22;;;15.63;34.00
56630;BME280;42502;40.732;-74.254;2022-11-21T06:45:51;101901.13;;;15.65;34.09
56630;BME280;42502;40.732;-74.254;2022-11-21T06:47:52;101891.13;;;15.59;33.79
56630;BME280;42502;40.732;-74.254;2022-11-21T06:49:53;101897.28;;;15.61;33.85
56630;BME280;42502;40.732;-74.254;2022-11-21T06:51:56;101901.47;;;15.58;33.88
56630;BME280;42502;40.732;-74.254;2022-11-21T06:53:58;101912.31;;;15.60;34.00
56630;BME280;42502;40.732;-74.254;2022-11-21T06:55:59;101910.94;;;15.57;33.91
56630;BME280;42502;40.732;-74.254;2022-11-21T06:58:00;101915.09;;;15.60;33.91
56630;BME280;42502;40.732;-74.254;2022-11-21T07:00:02;101910.09;;;15.57;34.09
56630;BME280;42502;40.732;-74.254;2022-11-21T07:02:03;101927.06;;;15.60;34.03
56630;BME280;42502;40.732;-74.254;2022-11-21T07:04:04;101927.34;;;15.59;34.11
56630;BME280;42502;40.732;-74.254;2022-11-21T07:06:05;101936.56;;;15.59;33.75
56630;BME280;42502;40.732;-74.254;2022-11-21T07:08:06;101930.72;;;15.56;33.74
56630;BME280;42502;40.732;-74.254;2022-11-21T07:10:07;101928.28;;;15.49;34.04
56630;BME280;42502;40.732;-74.254;2022-11-21T07:12:08;101942.41;;;15.58;33.75
56630;BME280;42502;40.732;-74.254;2022-11-21T07:14:28;101943.00;;;15.55;33.73
56630;BME280;42502;40.732;-74.254;2022-11-21T07:16:28;101951.88;;;15.57;33.78
56630;BME280;42502;40.732;-74.254;2022-11-21T07:18:32;101946.06;;;15.53;33.66
56630;BME280;42502;40.732;-74.254;2022-11-21T07:20:33;101947.47;;;15.51;33.93
56630;BME280;42502;40.732;-74.254;2022-11-21T07:22:34;101944.69;;;15.51;34.03
56630;BME280;42502;40.732;-74.254;2022-11-21T07:24:34;101946.91;;;15.49;33.92
56630;BME280;42502;40.732;-74.254;2022-11-21T07:26:35;101955.25;;;15.54;34.05
56630;BME280;42502;40.732;-74.254;2022-11-21T07:28:36;101958.06;;;15.49;34.09
56630;BME280;42502;40.732;-74.254;2022-11-21T07:30:37;101970.28;;;15.53;34.15
56630;BME280;42502;40.732;-74.254;2022-11-21T07:32:38;101971.97;;;15.54;33.91
56630;BME280;42502;40.732;-74.254;2022-11-21T07:34:39;101968.66;;;15.52;33.99
56630;BME280;42502;40.732;-74.254;2022-11-21T07:36:40;101975.84;;;15.53;34.29
56630;BME280;42502;40.732;-74.254;2022-11-21T07:38:40;101968.94;;;15.50;34.20
56630;BME280;42502;40.732;-74.254;2022-11-21T07:40:41;101968.66;;;15.46;34.07
56630;BME280;42502;40.732;-74.254;2022-11-21T07:42:42;101974.22;;;15.46;34.26
56630;BME280;42502;40.732;-74.254;2022-11-21T07:44:43;101977.00;;;15.46;34.30
56630;BME280;42502;40.732;-74.254;2022-11-21T07:46:44;101983.13;;;15.49;34.08
56630;BME280;42502;40.732;-74.254;2022-11-21T07:48:45;101971.72;;;15.45;34.13
56630;BME280;42502;40.732;-74.254;2022-11-21T07:50:46;101972.56;;;15.45;34.34
56630;BME280;42502;40.732;-74.254;2022-11-21T07:52:47;101977.84;;;15.47;34.26
56630;BME280;42502;40.732;-74.254;2022-11-21T07:54:47;101980.09;;;15.45;34.32
56630;BME280;42502;40.732;-74.254;2022-11-21T07:56:51;101975.66;;;15.39;34.28
56630;BME280;42502;40.732;-74.254;2022-11-21T07:58:52;101985.66;;;15.45;34.45
56630;BME280;42502;40.732;-74.254;2022-11-21T08:00:55;101994.00;;;15.45;34.48
56630;BME280;42502;40.732;-74.254;2022-11-21T08:02:56;101992.63;;;15.42;34.19
56630;BME280;42502;40.732;-74.254;2022-11-21T08:05:00;101997.09;;;15.43;34.25
56630;BME280;42502;40.732;-74.254;2022-11-21T08:07:01;102001.53;;;15.44;34.45
56630;BME280;42502;40.732;-74.254;2022-11-21T08:09:02;102001.84;;;15.43;34.43
56630;BME280;42502;40.732;-74.254;2022-11-21T08:11:04;102004.91;;;15.41;34.58
56630;BME280;42502;40.732;-74.254;2022-11-21T08:13:05;102009.31;;;15.42;34.42
56630;BME280;42502;40.732;-74.254;2022-11-21T08:15:06;102012.41;;;15.41;34.18
56630;BME280;42502;40.732;-74.254;2022-11-21T08:17:08;102009.63;;;15.41;34.45
56630;BME280;42502;40.732;-74.254;2022-11-21T08:19:08;102018.25;;;15.39;34.42
56630;BME280;42502;40.732;-74.254;2022-11-21T08:21:09;102011.03;;;15.38;34.40
56630;BME280;42502;40.732;-74.254;2022-11-21T08:23:10;102020.50;;;15.37;34.36
56630;BME280;42502;40.732;-74.254;2022-11-21T08:25:11;102029.41;;;15.39;34.28
56630;BME280;42502;40.732;-74.254;2022-11-21T08:27:12;102028.56;;;15.39;34.44
56630;BME280;42502;40.732;-74.254;2022-11-21T08:29:14;102034.44;;;15.37;34.46
56630;BME280;42502;40.732;-74.254;2022-11-21T08:31:15;102032.47;;;15.38;34.33
56630;BME280;42502;40.732;-74.254;2022-11-21T08:33:16;102042.78;;;15.37;34.25
56630;BME280;42502;40.732;-74.254;2022-11-21T08:35:17;102024.72;;;15.30;34.47
56630;BME280;42502;40.732;-74.254;2022-11-21T08:37:18;102038.59;;;15.35;34.19
56630;BME280;42502;40.732;-74.254;2022-11-21T08:39:19;102040.56;;;15.34;34.37
56630;BME280;42502;40.732;-74.254;2022-11-21T08:41:20;102035.31;;;15.27;34.46
56630;BME280;42502;40.732;-74.254;2022-11-21T08:43:39;102043.34;;;15.34;34.44
56630;BME280;42502;40.732;-74.254;2022-11-21T08:45:40;102055.31;;;15.35;34.71
56630;BME280;42502;40.732;-74.254;2022-11-21T08:47:41;102049.75;;;15.35;34.31
56630;BME280;42502;40.732;-74.254;2022-11-21T08:49:42;102057.00;;;15.36;34.50
56630;BME280;42502;40.732;-74.254;2022-11-21T08:51:42;102050.88;;;15.34;34.55
56630;BME280;42502;40.732;-74.254;2022-11-21T08:53:48;102018.66;;;15.12;34.65
56630;BME280;42502;40.732;-74.254;2022-11-21T08:55:58;102056.75;;;15.32;34.44
56630;BME280;42502;40.732;-74.254;2022-11-21T08:57:59;102066.75;;;15.33;34.73
56630;BME280;42502;40.732;-74.254;2022-11-21T09:00:00;102050.34;;;15.26;34.81
56630;BME280;42502;40.732;-74.254;2022-11-21T09:02:01;102057.84;;;15.31;34.78
56630;BME280;42502;40.732;-74.254;2022-11-21T09:04:02;102065.38;;;15.31;34.57
56630;BME280;42502;40.732;-74.254;2022-11-21T09:06:03;102070.94;;;15.31;34.43
56630;BME280;42502;40.732;-74.254;2022-11-21T09:08:08;102073.44;;;15.27;34.88
56630;BME280;42502;40.732;-74.254;2022-11-21T09:10:09;102063.44;;;15.26;34.55
56630;BME280;42502;40.732;-74.254;2022-11-21T09:12:13;102064.00;;;15.23;34.86
56630;BME280;42502;40.732;-74.254;2022-11-21T09:14:13;102071.81;;;15.26;34.86
56630;BME280;42502;40.732;-74.254;2022-11-21T09:16:33;102073.16;;;15.28;34.71
56630;BME280;42502;40.732;-74.254;2022-11-21T09:18:52;102068.44;;;15.29;34.70
56630;BME280;42502;40.732;-74.254;2022-11-21T09:20:55;102068.44;;;15.29;34.95
56630;BME280;42502;40.732;-74.254;2022-11-21T09:22:56;102075.94;;;15.28;34.96
56630;BME280;42502;40.732;-74.254;2022-11-21T09:24:57;102074.59;;;15.26;34.84
56630;BME280;42502;40.732;-74.254;2022-11-21T09:26:58;102078.19;;;15.26;34.96
56630;BME280;42502;40.732;-74.254;2022-11-21T09:29:02;102083.75;;;15.26;34.95
56630;BME280;42502;40.732;-74.254;2022-11-21T09:31:05;102083.75;;;15.26;34.91
56630;BME280;42502;40.732;-74.254;2022-11-21T09:33:10;102078.50;;;15.20;35.19
56630;BME280;42502;40.732;-74.254;2022-11-21T09:35:11;102085.72;;;15.26;34.71
56630;BME280;42502;40.732;-74.254;2022-11-21T09:37:21;102077.09;;;15.22;35.01
56630;BME280;42502;40.732;-74.254;2022-11-21T09:39:25;102076.25;;;15.22;35.07
56630;BME280;42502;40.732;-74.254;2022-11-21T09:41:36;102085.16;;;15.24;34.79
56630;BME280;42502;40.732;-74.254;2022-11-21T09:46:25;102087.13;;;15.23;34.64
56630;BME280;42502;40.732;-74.254;2022-11-21T09:49:02;102098.53;;;15.22;35.12
56630;BME280;42502;40.732;-74.254;2022-11-21T09:51:11;102099.34;;;15.22;34.88
56630;BME280;42502;40.732;-74.254;2022-11-21T09:53:21;102104.09;;;15.22;34.74
56630;BME280;42502;40.732;-74.254;2022-11-21T09:57:54;102103.56;;;15.20;34.80
56630;BME280;42502;40.732;-74.254;2022-11-21T09:59:56;102094.66;;;15.13;34.88
56630;BME280;42502;40.732;-74.254;2022-11-21T10:01:57;102110.22;;;15.19;34.91
56630;BME280;42502;40.732;-74.254;2022-11-21T10:04:01;102115.22;;;15.17;34.85
56630;BME280;42502;40.732;-74.254;2022-11-21T10:06:10;102105.78;;;15.18;35.18
56630;BME280;42502;40.732;-74.254;2022-11-21T10:10:46;102104.66;;;15.14;34.77
56630;BME280;42502;40.732;-74.254;2022-11-21T10:12:55;102109.66;;;15.17;35.05
56630;BME280;42502;40.732;-74.254;2022-11-21T10:22:26;102121.06;;;15.15;35.00
56630;BME280;42502;40.732;-74.254;2022-11-21T10:27:29;102141.41;;;15.16;34.89
56630;BME280;42502;40.732;-74.254;2022-11-21T10:29:46;102131.97;;;15.12;34.72
56630;BME280;42502;40.732;-74.254;2022-11-21T10:31:50;102142.53;;;15.15;34.83
56630;BME280;42502;40.732;-74.254;2022-11-21T10:33:55;102147.28;;;15.14;34.97
56630;BME280;42502;40.732;-74.254;2022-11-21T10:36:23;102145.34;;;15.09;34.85
56630;BME280;42502;40.732;-74.254;2022-11-21T10:38:27;102156.72;;;15.13;34.74
56630;BME280;42502;40.732;-74.254;2022-11-21T10:42:46;102160.06;;;15.10;34.95
56630;BME280;42502;40.732;-74.254;2022-11-21T10:44:50;102158.13;;;15.10;34.84
56630;BME280;42502;40.732;-74.254;2022-11-21T10:49:29;102153.66;;;15.04;34.99
56630;BME280;42502;40.732;-74.254;2022-11-21T10:53:45;102163.97;;;15.04;34.77
56630;BME280;42502;40.732;-74.254;2022-11-21T10:56:22;102173.16;;;15.04;34.99
56630;BME280;42502;40.732;-74.254;2022-11-21T10:58:45;102169.56;;;14.99;34.71